createdAt,value
2023-01-29T00:02:20.028Z,101669.59
2023-01-29T00:04:50.675Z,101673.06
2023-01-29T00:07:19.626Z,101708.75
2023-01-29T00:09:46.254Z,101686.34
2023-01-29T00:12:13.146Z,101678.66
2023-01-29T00:14:40.144Z,101686.47
2023-01-29T00:17:07.218Z,101686.41
2023-01-29T00:19:35.341Z,101653.16
2023-01-29T00:22:02.397Z,101645.41
2023-01-29T00:24:34.929Z,101670.75
2023-01-29T00:27:01.956Z,101624.94
2023-01-29T00:29:28.603Z,101668.81
2023-01-29T00:31:57.682Z,101671.09
2023-01-29T00:34:24.619Z,101618.41
2023-01-29T00:36:51.311Z,101649.94
2023-01-29T00:39:29.392Z,101655.44
2023-01-29T00:42:21.607Z,101663.44
2023-01-29T00:45:00.333Z,101658.25
2023-01-29T00:47:35.979Z,101652.16
2023-01-29T00:50:10.857Z,101636.25
2023-01-29T00:52:38.104Z,101619.38
2023-01-29T00:55:07.065Z,101631.94
2023-01-29T00:57:38.714Z,101633.47
2023-01-29T01:00:08.033Z,101650.94
2023-01-29T01:02:53.193Z,101601.63
2023-01-29T01:05:21.452Z,101622.16
2023-01-29T01:07:52.887Z,101621.88
2023-01-29T01:10:33.684Z,101619.97
2023-01-29T01:13:05.312Z,101596.09
2023-01-29T01:15:35.677Z,101611.63
2023-01-29T01:18:03.127Z,101626.44
2023-01-29T01:20:35.901Z,101612.00
2023-01-29T01:23:06.302Z,101576.38
2023-01-29T01:25:36.084Z,101590.47
2023-01-29T01:28:02.896Z,101607.03
2023-01-29T01:30:29.717Z,101621.94
2023-01-29T01:32:56.394Z,101605.16
2023-01-29T01:35:23.207Z,101604.53
2023-01-29T01:37:52.734Z,101619.63
2023-01-29T01:40:20.623Z,101616.44
2023-01-29T01:42:52.842Z,101571.88
2023-01-29T01:45:34.438Z,101592.47
2023-01-29T01:48:07.388Z,101606.94
2023-01-29T01:50:56.534Z,101588.34
2023-01-29T01:53:28.744Z,101591.66
2023-01-29T01:56:04.236Z,101584.66
2023-01-29T01:58:44.026Z,101591.41
2023-01-29T02:01:14.961Z,101610.09
2023-01-29T02:04:08.184Z,101608.72
2023-01-29T02:06:54.268Z,101587.19
2023-01-29T02:09:37.946Z,101589.66
2023-01-29T02:12:07.312Z,101606.38
2023-01-29T02:14:38.981Z,101601.63
2023-01-29T02:17:08.644Z,101607.50
2023-01-29T02:19:44.175Z,101608.03
2023-01-29T02:22:25.880Z,101616.84
2023-01-29T02:25:40.994Z,101578.00
2023-01-29T02:28:40.701Z,101583.38
2023-01-29T02:31:20.432Z,101578.31
2023-01-29T02:34:13.199Z,101599.06
2023-01-29T02:36:51.229Z,101564.97
2023-01-29T02:39:29.202Z,101601.22
2023-01-29T02:42:02.909Z,101605.28
2023-01-29T02:44:38.148Z,101594.97
2023-01-29T02:47:14.099Z,101577.66
2023-01-29T02:49:40.679Z,101620.97
2023-01-29T02:52:16.609Z,101582.47
2023-01-29T02:55:18.825Z,101619.91
2023-01-29T02:57:47.201Z,101581.56
2023-01-29T03:00:24.648Z,101596.56
2023-01-29T03:03:04.544Z,101609.66
2023-01-29T03:05:44.928Z,101614.50
2023-01-29T03:08:15.612Z,101566.81
2023-01-29T03:10:53.030Z,101554.91
2023-01-29T03:13:25.145Z,101578.09
2023-01-29T03:16:01.705Z,101553.63
2023-01-29T03:18:32.844Z,101567.72
2023-01-29T03:21:04.166Z,101554.31
2023-01-29T03:23:53.670Z,101527.81
2023-01-29T03:26:40.929Z,101573.50
2023-01-29T03:29:27.731Z,101535.41
2023-01-29T03:32:08.509Z,101541.34
2023-01-29T03:34:58.279Z,101554.69
2023-01-29T03:37:35.224Z,101538.78
2023-01-29T03:40:03.813Z,101535.16
2023-01-29T03:42:39.227Z,101532.22
2023-01-29T03:45:28.041Z,101544.72
2023-01-29T03:48:22.561Z,101528.50
2023-01-29T03:51:01.615Z,101525.88
2023-01-29T03:53:48.526Z,101529.28
2023-01-29T03:56:33.897Z,101526.72
2023-01-29T03:59:39.924Z,101513.94
2023-01-29T04:02:11.117Z,101527.84
2023-01-29T04:04:42.067Z,101524.41
2023-01-29T04:07:23.953Z,101492.13
2023-01-29T04:10:15.884Z,101501.06
2023-01-29T04:12:53.495Z,101522.66
2023-01-29T04:15:21.239Z,101483.53
2023-01-29T04:17:56.180Z,101486.69
2023-01-29T04:20:26.957Z,101493.69
2023-01-29T04:22:53.693Z,101467.72
2023-01-29T04:25:28.739Z,101464.16
2023-01-29T04:28:17.449Z,101509.78
2023-01-29T04:30:48.121Z,101502.22
2023-01-29T04:33:44.242Z,101493.97
2023-01-29T04:36:32.766Z,101497.53
2023-01-29T04:39:17.602Z,101492.63
2023-01-29T04:41:54.137Z,101456.13
2023-01-29T04:44:49.937Z,101477.53
2023-01-29T04:47:34.867Z,101492.88
2023-01-29T04:50:18.615Z,101502.25
2023-01-29T04:53:00.652Z,101479.22
2023-01-29T04:55:41.676Z,101479.59
2023-01-29T04:58:13.165Z,101476.38
2023-01-29T05:00:46.933Z,101484.13
2023-01-29T05:03:15.220Z,101434.91
2023-01-29T05:05:44.845Z,101475.16
2023-01-29T05:08:14.627Z,101441.78
2023-01-29T05:10:42.536Z,101420.66
2023-01-29T05:13:12.190Z,101447.19
2023-01-29T05:15:42.891Z,101457.97
2023-01-29T05:18:10.225Z,101405.88
2023-01-29T05:20:39.450Z,101432.03
2023-01-29T05:23:12.730Z,101446.25
2023-01-29T05:25:39.566Z,101407.78
2023-01-29T05:28:07.142Z,101395.25
2023-01-29T05:30:36.659Z,101432.28
2023-01-29T05:33:03.837Z,101428.81
2023-01-29T05:35:30.813Z,101430.47
2023-01-29T05:37:57.668Z,101415.75
2023-01-29T05:40:25.334Z,101402.94
2023-01-29T05:42:52.597Z,101385.34
2023-01-29T05:45:19.497Z,101398.34
2023-01-29T05:47:48.931Z,101389.22
2023-01-29T05:50:16.589Z,101376.00
2023-01-29T05:52:46.510Z,101408.00
2023-01-29T05:55:13.506Z,101407.84
2023-01-29T05:57:41.015Z,101380.81
2023-01-29T06:00:13.213Z,101405.75
2023-01-29T06:02:40.556Z,101385.44
2023-01-29T06:05:07.575Z,101399.00
2023-01-29T06:07:34.736Z,101407.09
2023-01-29T06:10:06.636Z,101396.34
2023-01-29T06:12:33.540Z,101377.66
2023-01-29T06:15:00.481Z,101386.03
2023-01-29T06:17:27.361Z,101370.81
2023-01-29T06:19:53.982Z,101350.06
2023-01-29T06:22:20.893Z,101368.00
2023-01-29T06:24:47.936Z,101338.56
2023-01-29T06:27:25.893Z,101329.25
2023-01-29T06:29:55.249Z,101361.47
2023-01-29T06:32:24.957Z,101348.59
2023-01-29T06:34:53.191Z,101318.84
2023-01-29T06:37:23.099Z,101354.63
2023-01-29T06:39:53.383Z,101354.63
2023-01-29T06:42:20.735Z,101344.88
2023-01-29T06:44:47.663Z,101350.41
2023-01-29T06:47:17.763Z,101346.28
2023-01-29T06:49:44.903Z,101314.72
2023-01-29T06:52:11.498Z,101357.91
2023-01-29T06:54:41.851Z,101344.94
2023-01-29T06:57:08.704Z,101323.31
2023-01-29T06:59:35.451Z,101364.78
2023-01-29T07:02:03.831Z,101335.03
2023-01-29T07:04:31.132Z,101339.00
2023-01-29T07:07:00.146Z,101353.47
2023-01-29T07:09:28.344Z,101344.47
2023-01-29T07:11:55.144Z,101378.50
2023-01-29T07:14:21.775Z,101383.63
2023-01-29T07:16:48.621Z,101377.25
2023-01-29T07:19:15.663Z,101378.16
2023-01-29T07:21:48.378Z,101377.09
2023-01-29T07:24:16.330Z,101360.88
2023-01-29T07:26:45.837Z,101353.94
2023-01-29T07:29:15.004Z,101358.00
2023-01-29T07:31:41.713Z,101350.31
2023-01-29T07:34:11.521Z,101380.47
2023-01-29T07:37:23.855Z,101385.84
2023-01-29T07:39:50.643Z,101356.88
2023-01-29T07:42:17.595Z,101374.94
2023-01-29T07:44:44.409Z,101381.72
2023-01-29T07:47:12.334Z,101400.00
2023-01-29T07:49:38.909Z,101379.91
2023-01-29T07:52:05.627Z,101398.81
2023-01-29T07:54:32.441Z,101410.91
2023-01-29T07:56:59.543Z,101394.94
2023-01-29T07:59:27.760Z,101385.63
2023-01-29T08:01:56.351Z,101383.88
2023-01-29T08:04:23.330Z,101393.88
2023-01-29T08:06:50.187Z,101389.22
2023-01-29T08:09:17.381Z,101362.44
2023-01-29T08:11:47.183Z,101400.72
2023-01-29T08:14:14.081Z,101365.66
2023-01-29T08:16:40.721Z,101351.84
2023-01-29T08:19:07.606Z,101369.75
2023-01-29T08:21:34.333Z,101337.50
2023-01-29T08:26:28.636Z,101315.38
2023-01-29T08:28:57.558Z,101346.94
2023-01-29T08:31:24.956Z,101344.03
2023-01-29T08:33:51.636Z,101341.00
2023-01-29T08:36:18.365Z,101309.03
2023-01-29T08:38:44.963Z,101304.56
2023-01-29T08:41:11.767Z,101296.38
2023-01-29T08:43:38.761Z,101271.16
2023-01-29T08:46:06.194Z,101299.66
2023-01-29T08:48:33.627Z,101304.56
2023-01-29T08:51:01.630Z,101269.66
2023-01-29T08:53:28.649Z,101297.09
2023-01-29T08:55:57.684Z,101276.56
2023-01-29T08:58:26.599Z,101274.81
2023-01-29T09:00:55.381Z,101277.31
2023-01-29T09:03:24.961Z,101252.63
2023-01-29T09:05:51.497Z,101291.47
2023-01-29T09:08:19.906Z,101265.25
2023-01-29T09:10:46.561Z,101255.69
2023-01-29T09:13:15.941Z,101262.09
2023-01-29T09:15:42.741Z,101220.50
2023-01-29T09:18:11.029Z,101233.72
2023-01-29T09:20:38.665Z,101196.03
2023-01-29T09:23:10.125Z,101201.81
2023-01-29T09:25:39.964Z,101222.00
2023-01-29T09:28:06.687Z,101206.97
2023-01-29T09:30:34.762Z,101215.00
2023-01-29T09:33:01.743Z,101239.91
2023-01-29T09:35:28.564Z,101204.81
2023-01-29T09:37:57.879Z,101242.47
2023-01-29T09:41:13.677Z,101215.03
2023-01-29T09:43:49.952Z,101230.09
2023-01-29T09:46:19.815Z,101229.78
2023-01-29T09:48:47.346Z,101217.94
2023-01-29T09:51:50.680Z,101217.31
2023-01-29T09:54:23.994Z,101235.22
2023-01-29T09:56:59.904Z,101235.84
2023-01-29T10:02:50.728Z,101241.28
2023-01-29T10:05:20.871Z,101235.94
2023-01-29T10:08:13.957Z,101224.50
2023-01-29T10:10:50.913Z,101214.72
2023-01-29T10:13:37.247Z,101211.44
2023-01-29T10:16:29.539Z,101219.16
2023-01-29T10:19:23.551Z,101223.47
2023-01-29T10:22:09.383Z,101217.47
2023-01-29T10:24:42.739Z,101184.25
2023-01-29T10:27:17.251Z,101211.41
2023-01-29T10:29:48.067Z,101202.75
2023-01-29T10:32:18.322Z,101193.09
2023-01-29T10:34:52.513Z,101213.75
2023-01-29T10:37:25.174Z,101190.66
2023-01-29T10:39:52.228Z,101185.94
2023-01-29T10:42:41.706Z,101201.03
2023-01-29T10:45:20.851Z,101201.00
2023-01-29T10:48:16.699Z,101189.56
2023-01-29T10:50:59.549Z,101188.72
2023-01-29T10:53:44.394Z,101189.16
2023-01-29T10:56:36.265Z,101175.78
2023-01-29T10:59:08.300Z,101160.19
2023-01-29T11:01:34.910Z,101161.84
2023-01-29T11:04:05.321Z,101173.16
2023-01-29T11:06:38.375Z,101171.25
2023-01-29T11:09:35.886Z,101185.16
2023-01-29T11:12:15.981Z,101178.91
2023-01-29T11:14:51.958Z,101176.16
2023-01-29T11:17:26.570Z,101180.03
2023-01-29T11:19:57.717Z,101149.06
2023-01-29T11:22:30.643Z,101147.00
2023-01-29T11:25:17.735Z,101153.88
2023-01-29T11:27:50.329Z,101134.31
2023-01-29T11:30:24.865Z,101143.75
2023-01-29T11:33:08.056Z,101148.72
2023-01-29T11:35:36.563Z,101148.91
2023-01-29T11:38:28.316Z,101135.47
2023-01-29T11:41:18.173Z,101116.97
2023-01-29T11:43:44.860Z,101128.78
2023-01-29T11:46:14.379Z,101146.59
2023-01-29T11:48:44.760Z,101147.09
2023-01-29T11:51:13.187Z,101148.19
2023-01-29T11:53:46.343Z,101102.94
2023-01-29T11:56:21.010Z,101119.84
2023-01-29T11:59:01.712Z,101109.81
2023-01-29T12:01:36.309Z,101102.06
2023-01-29T12:04:20.998Z,101101.50
2023-01-29T12:06:52.074Z,101057.88
2023-01-29T12:09:27.400Z,101058.03
2023-01-29T12:12:17.889Z,101067.13
2023-01-29T12:14:44.779Z,101046.28
2023-01-29T12:17:34.909Z,101027.47
2023-01-29T12:20:25.870Z,101035.34
2023-01-29T12:23:03.866Z,101052.88
2023-01-29T12:26:07.783Z,101036.00
2023-01-29T12:28:57.857Z,101028.22
2023-01-29T12:31:41.450Z,101016.00
2023-01-29T12:34:28.424Z,101001.25
2023-01-29T12:37:23.091Z,100996.75
2023-01-29T12:39:52.443Z,100981.34
2023-01-29T12:42:24.505Z,100967.69
2023-01-29T12:45:00.112Z,100978.06
2023-01-29T12:47:33.865Z,100980.97
2023-01-29T12:50:10.370Z,100957.31
2023-01-29T12:52:38.211Z,100984.41
2023-01-29T12:55:27.180Z,100974.97
2023-01-29T12:58:24.765Z,100940.03
2023-01-29T13:00:53.624Z,100942.50
2023-01-29T13:03:27.532Z,100949.69
2023-01-29T13:06:06.430Z,100918.47
2023-01-29T13:08:39.812Z,100944.31
2023-01-29T13:11:16.983Z,100908.81
2023-01-29T13:13:54.095Z,100934.25
2023-01-29T13:16:26.755Z,100906.50
2023-01-29T13:18:58.943Z,100918.59
2023-01-29T13:21:30.067Z,100891.19
2023-01-29T13:24:00.332Z,100909.84
2023-01-29T13:26:27.144Z,100894.28
2023-01-29T13:28:54.581Z,100924.66
2023-01-29T13:31:29.038Z,100923.47
2023-01-29T13:34:02.716Z,100920.91
2023-01-29T13:36:31.017Z,100908.94
2023-01-29T13:39:09.254Z,100910.59
2023-01-29T13:41:44.590Z,100868.81
2023-01-29T13:44:25.483Z,100887.97
2023-01-29T13:55:18.020Z,100876.75
2023-01-29T13:57:47.630Z,100878.97
2023-01-29T14:00:26.617Z,100878.56
2023-01-29T14:02:56.146Z,100882.00
2023-01-29T14:05:31.817Z,100880.91
2023-01-29T14:08:25.685Z,100870.88
2023-01-29T14:11:15.394Z,100844.28
2023-01-29T14:13:49.961Z,100866.69
2023-01-29T14:16:16.807Z,100880.16
2023-01-29T14:19:16.308Z,100877.06
2023-01-29T14:21:54.226Z,100875.03
2023-01-29T14:24:31.872Z,100882.13
2023-01-29T14:27:12.194Z,100838.72
2023-01-29T14:29:41.547Z,100850.28
2023-01-29T14:32:10.207Z,100875.78
2023-01-29T14:34:46.903Z,100862.00
2023-01-29T14:37:16.922Z,100870.63
2023-01-29T14:39:52.788Z,100855.66
2023-01-29T14:42:25.216Z,100853.97
2023-01-29T14:44:55.294Z,100852.75
2023-01-29T14:47:43.238Z,100824.00
2023-01-29T14:50:35.007Z,100844.22
2023-01-29T14:53:13.273Z,100816.09
2023-01-29T14:55:50.783Z,100811.50
2023-01-29T14:58:26.035Z,100833.25
2023-01-29T15:01:10.451Z,100804.91
2023-01-29T15:03:57.141Z,100819.69
2023-01-29T15:07:11.569Z,100800.28
2023-01-29T15:09:51.537Z,100814.97
2023-01-29T15:12:30.323Z,100813.44
2023-01-29T15:15:24.019Z,100805.94
2023-01-29T15:18:06.369Z,100799.25
2023-01-29T15:20:38.117Z,100798.66
2023-01-29T15:23:32.431Z,100781.81
2023-01-29T15:26:09.111Z,100772.06
2023-01-29T15:28:41.465Z,100752.59
2023-01-29T15:31:14.339Z,100759.78
2023-01-29T15:33:53.425Z,100757.50
2023-01-29T15:36:29.601Z,100776.59
2023-01-29T15:39:23.038Z,100776.41
2023-01-29T15:41:55.952Z,100749.09
2023-01-29T15:44:23.469Z,100757.81
2023-01-29T15:47:07.506Z,100753.63
2023-01-29T15:49:47.968Z,100757.09
2023-01-29T15:52:22.040Z,100720.09
2023-01-29T15:54:48.835Z,100717.09
2023-01-29T15:57:22.759Z,100726.94
2023-01-29T15:59:53.895Z,100719.75
2023-01-29T16:02:35.754Z,100738.00
2023-01-29T16:05:27.423Z,100729.38
2023-01-29T16:08:04.108Z,100720.78
2023-01-29T16:10:35.723Z,100682.31
2023-01-29T16:13:10.073Z,100670.09
2023-01-29T16:15:40.425Z,100681.97
2023-01-29T16:18:30.396Z,100705.38
2023-01-29T16:21:13.293Z,100700.84
2023-01-29T16:23:49.902Z,100696.84
2023-01-29T16:26:20.706Z,100689.84
2023-01-29T16:28:47.697Z,100691.72
2023-01-29T16:31:21.715Z,100682.38
2023-01-29T16:33:49.611Z,100685.66
2023-01-29T16:36:24.833Z,100667.78
2023-01-29T16:38:57.953Z,100667.59
2023-01-29T16:41:24.899Z,100658.16
2023-01-29T16:43:54.915Z,100652.28
2023-01-29T16:46:34.944Z,100658.38
2023-01-29T16:49:02.662Z,100644.81
2023-01-29T16:51:39.476Z,100632.94
2023-01-29T16:54:19.670Z,100632.19
2023-01-29T16:56:47.604Z,100626.47
2023-01-29T16:59:21.775Z,100627.41
2023-01-29T17:01:49.619Z,100619.81
2023-01-29T17:04:18.641Z,100617.34
2023-01-29T17:06:48.723Z,100601.25
2023-01-29T17:09:25.564Z,100596.31
2023-01-29T17:12:07.559Z,100592.94
2023-01-29T17:14:36.093Z,100590.47
2023-01-29T17:17:12.718Z,100580.22
2023-01-29T17:19:39.404Z,100582.88
2023-01-29T17:22:08.721Z,100569.25
2023-01-29T17:24:35.422Z,100570.06
2023-01-29T17:27:02.570Z,100566.69
2023-01-29T17:29:30.714Z,100564.22
2023-01-29T17:32:00.065Z,100564.13
2023-01-29T17:34:26.836Z,100565.06
2023-01-29T17:36:53.535Z,100557.47
2023-01-29T17:39:22.878Z,100556.72
2023-01-29T17:41:57.647Z,100554.31
2023-01-29T17:44:28.092Z,100549.16
2023-01-29T17:46:54.787Z,100544.94
2023-01-29T17:49:35.859Z,100536.44
2023-01-29T17:52:02.530Z,100525.50
2023-01-29T17:54:29.202Z,100513.47
2023-01-29T17:56:56.515Z,100516.84
2023-01-29T17:59:25.165Z,100508.22
2023-01-29T18:01:52.232Z,100489.44
2023-01-29T18:04:19.001Z,100463.94
2023-01-29T18:06:48.208Z,100461.47
2023-01-29T18:09:16.082Z,100464.97
2023-01-29T18:11:43.404Z,100461.56
2023-01-29T18:14:14.485Z,100458.19
2023-01-29T18:16:43.623Z,100464.13
2023-01-29T18:19:16.646Z,100451.41
2023-01-29T18:21:43.386Z,100435.22
2023-01-29T18:24:10.053Z,100435.22
2023-01-29T18:26:36.893Z,100421.56
2023-01-29T18:29:04.418Z,100409.69
2023-01-29T18:31:31.440Z,100408.06
2023-01-29T18:33:58.414Z,100402.94
2023-01-29T18:36:25.328Z,100410.63
2023-01-29T18:38:52.008Z,100400.38
2023-01-29T18:41:19.035Z,100385.88
2023-01-29T18:43:45.629Z,100385.78
2023-01-29T18:46:12.227Z,100377.28
2023-01-29T18:48:40.935Z,100362.00
2023-01-29T18:51:08.423Z,100366.00
2023-01-29T18:53:35.287Z,100361.91
2023-01-29T18:56:04.574Z,100367.72
2023-01-29T18:58:38.665Z,100362.50
2023-01-29T19:01:09.660Z,100350.47
2023-01-29T19:03:36.895Z,100343.59
2023-01-29T19:06:05.198Z,100334.28
2023-01-29T19:08:32.292Z,100327.28
2023-01-29T19:11:02.341Z,100322.88
2023-01-29T19:13:30.244Z,100315.19
2023-01-29T19:15:56.869Z,100309.13
2023-01-29T19:18:26.027Z,100299.66
2023-01-29T19:20:53.156Z,100308.88
2023-01-29T19:23:20.633Z,100299.34
2023-01-29T19:25:47.644Z,100278.81
2023-01-29T19:28:15.324Z,100274.38
2023-01-29T19:30:41.970Z,100263.06
2023-01-29T19:33:09.740Z,100259.69
2023-01-29T19:35:36.387Z,100246.84
2023-01-29T19:38:04.127Z,100239.97
2023-01-29T19:40:30.831Z,100241.50
2023-01-29T19:42:58.260Z,100232.88
2023-01-29T19:45:49.988Z,100220.03
2023-01-29T19:48:14.702Z,100215.59
2023-01-29T19:50:42.142Z,100214.44
2023-01-29T19:53:08.845Z,100208.63
2023-01-29T19:55:35.499Z,100205.94
2023-01-29T19:58:03.561Z,100216.22
2023-01-29T20:00:30.313Z,100209.31
2023-01-29T20:02:56.932Z,100208.38
2023-01-29T20:05:24.123Z,100211.78
2023-01-29T20:07:50.763Z,100225.28
2023-01-29T20:10:18.270Z,100229.47
2023-01-29T20:12:45.733Z,100207.91
2023-01-29T20:15:13.845Z,100203.72
2023-01-29T20:17:40.624Z,100201.16
2023-01-29T20:20:08.665Z,100197.63
2023-01-29T20:22:35.446Z,100186.47
2023-01-29T20:25:02.409Z,100172.81
2023-01-29T20:27:29.178Z,100172.69
2023-01-29T20:29:55.903Z,100173.50
2023-01-29T20:32:22.587Z,100171.75
2023-01-29T20:34:52.172Z,100175.94
2023-01-29T20:37:19.672Z,100164.84
2023-01-29T20:39:46.828Z,100154.47
2023-01-29T20:42:13.935Z,100144.09
2023-01-29T20:44:40.617Z,100157.75
2023-01-29T20:47:07.304Z,100149.34
2023-01-29T20:49:34.035Z,100143.28
2023-01-29T20:52:00.633Z,100138.16
2023-01-29T20:54:29.414Z,100133.84
2023-01-29T20:56:56.353Z,100117.63
2023-01-29T20:59:23.166Z,100121.13
2023-01-29T21:01:49.869Z,100118.69
2023-01-29T21:04:16.592Z,100096.53
2023-01-29T21:06:43.368Z,100102.47
2023-01-29T21:09:10.138Z,100091.66
2023-01-29T21:11:36.769Z,100078.00
2023-01-29T21:14:03.350Z,100087.56
2023-01-29T21:16:30.205Z,100063.78
2023-01-29T21:18:58.314Z,100060.53
2023-01-29T21:21:26.535Z,100049.69
2023-01-29T21:23:53.631Z,100041.31
2023-01-29T21:26:20.527Z,100043.16
2023-01-29T21:28:47.191Z,100027.09
2023-01-29T21:31:17.718Z,100016.94
2023-01-29T21:33:45.120Z,100017.31
2023-01-29T21:36:11.818Z,99998.81
2023-01-29T21:38:38.835Z,99997.28
2023-01-29T21:41:08.356Z,99978.63
2023-01-29T21:43:35.079Z,99965.94
2023-01-29T21:46:05.403Z,99974.56
2023-01-29T21:48:32.066Z,99960.22
2023-01-29T21:50:58.737Z,99953.75
2023-01-29T21:53:25.429Z,99942.44
2023-01-29T21:55:52.155Z,99943.22
2023-01-29T21:58:20.736Z,99943.38
2023-01-29T22:00:48.927Z,99929.59
2023-01-29T22:03:15.853Z,99914.34
2023-01-29T22:05:42.696Z,99889.53
2023-01-29T22:08:10.013Z,99896.38
2023-01-29T22:10:37.056Z,99867.50
2023-01-29T22:13:03.863Z,99869.94
2023-01-29T22:15:30.835Z,99870.75
2023-01-29T22:17:57.513Z,99866.44
2023-01-29T22:20:30.054Z,99864.78
2023-01-29T22:22:58.988Z,99857.00
2023-01-29T22:25:26.175Z,99848.50
2023-01-29T22:27:52.895Z,99817.75
2023-01-29T22:30:19.983Z,99821.78
2023-01-29T22:32:47.208Z,99829.47
2023-01-29T22:35:14.005Z,99818.97
2023-01-29T22:37:40.893Z,99814.66
2023-01-29T22:40:08.442Z,99815.47
2023-01-29T22:42:34.993Z,99790.66
2023-01-29T22:45:01.598Z,99774.44
2023-01-29T22:47:28.165Z,99764.06
2023-01-29T22:49:54.772Z,99751.34
2023-01-29T22:52:22.340Z,99742.72
2023-01-29T22:54:49.003Z,99762.16
2023-01-29T22:57:15.898Z,99769.06
2023-01-29T22:59:42.531Z,99751.91
2023-01-29T23:02:09.242Z,99746.66
2023-01-29T23:04:35.942Z,99735.63
2023-01-29T23:07:03.140Z,99717.66
2023-01-29T23:09:29.805Z,99709.97
2023-01-29T23:11:59.465Z,99697.00
2023-01-29T23:14:26.163Z,99695.38
2023-01-29T23:16:52.847Z,99690.25
2023-01-29T23:19:19.508Z,99685.78
2023-01-29T23:21:46.282Z,99672.84
2023-01-29T23:24:13.191Z,99665.16
2023-01-29T23:26:58.135Z,99658.41
2023-01-29T23:29:24.761Z,99636.00
2023-01-29T23:31:51.409Z,99631.16
2023-01-29T23:34:18.579Z,99613.31
2023-01-29T23:36:45.213Z,99588.22
2023-01-29T23:39:11.916Z,99600.25
2023-01-29T23:41:38.617Z,99590.91
2023-01-29T23:44:05.578Z,99584.59
2023-01-29T23:46:32.535Z,99584.72
2023-01-29T23:48:59.321Z,99577.72
2023-01-29T23:51:25.999Z,99564.19
2023-01-29T23:53:53.068Z,99564.91
2023-01-29T23:56:20.185Z,99565.84
2023-01-29T23:58:46.962Z,99560.72
